Time;durP1;ratioP1;P1;durP2;ratioP2;P2;SDS_P1;SDS_P2;PMS_P1;PMS_P2;Temp;Humidity;BMP_temperature;BMP_pressure;BME280_temperature;BME280_humidity;BME280_pressure;Samples;Min_cycle;Max_cycle;Signal;HPM_P1;HPM_P2
2021/09/11 00:01:53;;;;;;;64.15;33.85;;;18.60;99.90;;;;;;5004549;28;20045;-58
2021/09/11 00:04:19;;;;;;;58.63;31.83;;;18.60;99.90;;;;;;4994741;28;20042;-59
2021/09/11 00:06:45;;;;;;;62.40;33.95;;;18.60;99.90;;;;;;4980819;28;20037;-57
2021/09/11 00:09:10;;;;;;;63.20;34.38;;;18.60;99.90;;;;;;5002403;28;20094;-59
2021/09/11 00:11:36;;;;;;;61.67;34.30;;;18.50;99.90;;;;;;5011621;28;20064;-59
2021/09/11 00:14:02;;;;;;;59.47;35.13;;;18.50;99.90;;;;;;5002626;28;20069;-58
2021/09/11 00:16:28;;;;;;;69.13;35.22;;;18.60;99.90;;;;;;4960280;28;20129;-58
2021/09/11 00:18:53;;;;;;;69.53;34.60;;;18.50;99.90;;;;;;5009195;28;20068;-57
2021/09/11 00:21:19;;;;;;;64.60;34.53;;;18.50;99.90;;;;;;5013122;28;20417;-58
2021/09/11 00:23:45;;;;;;;69.38;36.72;;;18.60;99.90;;;;;;5003877;28;20093;-59
2021/09/11 00:26:11;;;;;;;73.03;36.25;;;18.60;99.90;;;;;;4993168;28;20068;-58
2021/09/11 00:28:36;;;;;;;65.57;34.38;;;18.50;99.90;;;;;;5011844;28;20415;-58
2021/09/11 00:31:02;;;;;;;66.78;35.75;;;18.60;99.90;;;;;;5027268;28;20042;-58
2021/09/11 00:33:28;;;;;;;68.28;36.03;;;18.60;99.90;;;;;;5014717;28;20034;-58
2021/09/11 00:35:54;;;;;;;72.50;35.90;;;18.60;99.90;;;;;;4990473;28;20384;-58
2021/09/11 00:38:19;;;;;;;70.70;36.60;;;18.60;99.90;;;;;;5004946;28;20139;-56
2021/09/11 00:40:45;;;;;;;73.15;37.03;;;18.60;99.90;;;;;;5009907;28;20042;-54
2021/09/11 00:43:10;;;;;;;70.95;35.65;;;18.50;99.90;;;;;;5013651;28;20053;-54
2021/09/11 00:45:38;;;;;;;70.47;36.38;;;18.50;99.90;;;;;;5016503;28;20042;-56
2021/09/11 00:48:04;;;;;;;69.05;36.67;;;18.60;99.90;;;;;;4995519;28;20092;-53
2021/09/11 00:50:29;;;;;;;61.03;34.75;;;18.50;99.90;;;;;;5014565;28;20042;-55
2021/09/11 00:52:55;;;;;;;70.00;35.80;;;18.50;99.90;;;;;;5032121;28;20041;-54
2021/09/11 00:55:21;;;;;;;67.80;36.70;;;18.50;99.90;;;;;;4992004;28;20065;-55
2021/09/11 00:57:53;;;;;;;68.93;35.85;;;18.40;99.90;;;;;;4983060;28;20034;-56
2021/09/11 01:00:20;;;;;;;72.45;36.90;;;18.40;99.90;;;;;;4989282;28;20045;-50
2021/09/11 01:02:46;;;;;;;68.82;36.30;;;18.40;99.90;;;;;;5014223;28;20042;-51
2021/09/11 01:05:12;;;;;;;72.82;36.13;;;18.40;99.90;;;;;;5009853;28;20417;-51
2021/09/11 01:07:39;;;;;;;77.45;37.08;;;18.40;99.90;;;;;;5013080;28;20041;-53
2021/09/11 01:10:06;;;;;;;64.53;35.65;;;18.40;99.90;;;;;;4977148;28;20064;-52
2021/09/11 01:12:32;;;;;;;72.10;37.10;;;18.40;99.90;;;;;;5012012;28;20045;-52
2021/09/11 01:15:05;;;;;;;71.75;36.35;;;18.30;99.90;;;;;;5002208;28;20045;-51
2021/09/11 01:17:31;;;;;;;73.82;36.75;;;18.30;99.90;;;;;;5013199;28;20038;-54
2021/09/11 01:19:57;;;;;;;76.25;37.20;;;18.30;99.90;;;;;;5014347;28;20053;-54
2021/09/11 01:22:23;;;;;;;67.93;36.65;;;18.20;99.90;;;;;;5011963;28;20046;-53
2021/09/11 01:25:00;;;;;;;73.35;38.35;;;18.30;99.90;;;;;;4989344;28;20074;-51
2021/09/11 01:27:28;;;;;;;72.28;37.10;;;18.20;99.90;;;;;;4972122;28;20081;-51
2021/09/11 01:29:57;;;;;;;72.53;37.70;;;18.20;99.90;;;;;;5003507;28;20093;-55
2021/09/11 01:32:24;;;;;;;75.70;37.45;;;18.20;99.90;;;;;;4963028;28;20129;-54
2021/09/11 01:34:50;;;;;;;67.60;36.88;;;18.10;99.90;;;;;;5005066;28;20042;-59
2021/09/11 01:37:17;;;;;;;66.88;36.70;;;18.10;99.90;;;;;;4984377;28;20077;-59
2021/09/11 01:39:47;;;;;;;70.63;36.65;;;18.10;99.90;;;;;;4999416;28;20045;-59
2021/09/11 01:42:17;;;;;;;70.80;38.28;;;18.10;99.90;;;;;;5006966;28;20041;-59
2021/09/11 01:44:47;;;;;;;71.15;37.17;;;18.00;99.90;;;;;;4986133;28;20409;-59
2021/09/11 01:47:14;;;;;;;79.60;38.60;;;18.00;99.90;;;;;;5005911;28;20034;-59
2021/09/11 01:49:41;;;;;;;81.25;38.13;;;18.00;99.90;;;;;;4988171;28;20117;-58
2021/09/11 01:52:08;;;;;;;87.05;40.00;;;18.00;99.90;;;;;;4985740;28;20030;-59
2021/09/11 01:54:34;;;;;;;77.28;38.47;;;18.00;99.90;;;;;;5022239;28;20026;-57
2021/09/11 01:57:02;;;;;;;71.40;38.70;;;18.00;99.90;;;;;;5016418;28;20049;-59
2021/09/11 01:59:27;;;;;;;83.10;40.47;;;18.00;99.90;;;;;;5016073;28;20639;-54
2021/09/11 02:01:53;;;;;;;72.22;38.08;;;18.00;99.90;;;;;;5008397;28;20046;-54
2021/09/11 02:04:18;;;;;;;76.47;38.60;;;18.00;99.90;;;;;;4996380;28;20495;-55
2021/09/11 02:06:44;;;;;;;72.28;38.45;;;17.90;99.90;;;;;;4998850;28;20529;-53
2021/09/11 02:09:12;;;;;;;73.47;39.00;;;17.90;99.90;;;;;;5003690;28;20046;-55
2021/09/11 02:11:37;;;;;;;74.75;38.72;;;17.90;99.90;;;;;;5000319;28;20124;-52
2021/09/11 02:14:03;;;;;;;76.72;39.45;;;17.90;99.90;;;;;;5000558;28;20491;-55
2021/09/11 02:16:29;;;;;;;60.63;36.15;;;17.90;99.90;;;;;;4976989;28;20046;-55
2021/09/11 02:18:55;;;;;;;68.90;36.83;;;17.90;99.90;;;;;;4998724;28;20103;-55
2021/09/11 02:21:20;;;;;;;67.07;36.30;;;17.90;99.90;;;;;;4994026;28;20041;-56
2021/09/11 02:23:46;;;;;;;58.10;34.55;;;17.90;99.90;;;;;;5008011;28;20058;-54
2021/09/11 02:26:11;;;;;;;61.50;35.67;;;17.90;99.90;;;;;;4994601;28;20145;-59
2021/09/11 02:28:37;;;;;;;54.28;33.50;;;17.90;99.90;;;;;;5009059;28;20067;-58
2021/09/11 02:31:02;;;;;;;50.53;31.13;;;17.90;99.90;;;;;;4983592;28;20096;-54
2021/09/11 02:33:28;;;;;;;55.00;31.70;;;17.90;99.90;;;;;;5000841;28;20070;-60
2021/09/11 02:35:54;;;;;;;40.45;27.17;;;17.90;99.90;;;;;;5023203;28;20088;-56
2021/09/11 02:38:19;;;;;;;40.00;27.67;;;17.90;99.90;;;;;;5006291;28;20038;-53
2021/09/11 02:40:45;;;;;;;40.92;25.70;;;17.80;99.90;;;;;;4998686;28;20053;-55
2021/09/11 02:43:10;;;;;;;37.22;23.98;;;17.80;99.90;;;;;;5004241;28;20049;-53
2021/09/11 02:45:36;;;;;;;31.02;22.50;;;17.80;99.90;;;;;;4979884;28;20065;-55
2021/09/11 02:48:02;;;;;;;32.20;21.08;;;17.80;99.90;;;;;;5014313;28;20037;-56
2021/09/11 02:50:27;;;;;;;35.72;21.08;;;17.70;99.90;;;;;;5013829;28;20082;-57
2021/09/11 02:52:53;;;;;;;29.13;19.75;;;17.70;99.90;;;;;;4996537;28;20564;-55
2021/09/11 02:55:18;;;;;;;31.35;20.52;;;17.70;99.90;;;;;;5007570;28;20474;-55
2021/09/11 02:57:44;;;;;;;28.23;18.55;;;17.70;99.90;;;;;;5000744;28;20070;-56
2021/09/11 03:00:10;;;;;;;26.33;17.55;;;17.60;99.90;;;;;;4996026;28;20046;-53
2021/09/11 03:02:36;;;;;;;29.92;18.13;;;17.60;99.90;;;;;;5004204;28;20042;-54
2021/09/11 03:05:03;;;;;;;26.88;17.27;;;17.60;99.90;;;;;;4979671;28;20044;-54
2021/09/11 03:07:33;;;;;;;29.50;17.38;;;17.50;99.90;;;;;;5001713;28;20037;-54
2021/09/11 03:09:58;;;;;;;27.30;16.48;;;17.50;99.90;;;;;;4993538;28;20124;-53
2021/09/11 03:12:24;;;;;;;26.85;16.20;;;17.50;99.90;;;;;;5001394;28;20431;-53
2021/09/11 03:14:49;;;;;;;25.45;16.88;;;17.40;99.90;;;;;;4975939;28;20050;-54
2021/09/11 03:17:15;;;;;;;29.58;17.02;;;17.40;99.90;;;;;;4994599;28;20035;-53
2021/09/11 03:19:40;;;;;;;29.65;17.30;;;17.40;99.90;;;;;;4995030;28;20065;-52
2021/09/11 03:22:06;;;;;;;28.70;17.23;;;17.40;99.90;;;;;;4992207;28;20040;-54
2021/09/11 03:24:32;;;;;;;30.10;17.50;;;17.30;99.90;;;;;;4993819;28;20035;-53
2021/09/11 03:26:57;;;;;;;31.92;18.10;;;17.30;99.90;;;;;;4993652;28;20042;-52
2021/09/11 03:29:23;;;;;;;26.98;17.88;;;17.30;99.90;;;;;;5003516;28;20092;-53
2021/09/11 03:31:48;;;;;;;30.52;19.17;;;17.30;99.90;;;;;;5009723;28;20067;-50
2021/09/11 03:34:14;;;;;;;31.50;19.38;;;17.30;99.90;;;;;;4988920;28;20046;-54
2021/09/11 03:36:39;;;;;;;32.70;20.73;;;17.30;99.90;;;;;;5008901;28;20042;-54
2021/09/11 03:39:05;;;;;;;34.92;21.95;;;17.30;99.90;;;;;;5000658;28;20491;-52
2021/09/11 03:41:30;;;;;;;35.28;22.45;;;17.30;99.90;;;;;;4983667;28;20046;-54
2021/09/11 03:43:56;;;;;;;40.13;21.85;;;17.30;99.90;;;;;;5000483;28;20161;-54
2021/09/11 03:46:21;;;;;;;37.67;24.17;;;17.30;99.90;;;;;;5011755;28;20041;-52
2021/09/11 03:48:52;;;;;;;35.92;22.88;;;17.30;99.90;;;;;;4986390;28;20482;-58
2021/09/11 03:51:17;;;;;;;42.53;25.00;;;17.30;99.90;;;;;;4999695;28;20410;-58
2021/09/11 03:53:43;;;;;;;41.13;25.08;;;17.30;99.90;;;;;;4990197;28;20120;-58
2021/09/11 03:56:08;;;;;;;41.30;24.33;;;17.20;99.90;;;;;;4994514;28;20557;-58
2021/09/11 03:58:34;;;;;;;36.20;24.33;;;17.20;99.90;;;;;;4997347;28;20041;-55
2021/09/11 04:01:04;;;;;;;39.22;24.63;;;17.20;99.90;;;;;;4997813;28;20046;-59
2021/09/11 04:03:31;;;;;;;37.45;24.05;;;17.20;99.90;;;;;;4967781;28;20030;-59
2021/09/11 04:05:57;;;;;;;35.80;22.95;;;17.10;99.90;;;;;;5011851;28;20043;-59
2021/09/11 04:08:24;;;;;;;35.33;22.30;;;17.10;99.90;;;;;;4982691;28;20395;-57
2021/09/11 04:10:49;;;;;;;34.05;21.65;;;17.10;99.90;;;;;;5000518;28;20034;-59
2021/09/11 04:13:15;;;;;;;35.10;22.75;;;17.00;99.90;;;;;;4975542;28;20038;-58
2021/09/11 04:15:41;;;;;;;33.45;21.80;;;17.00;99.90;;;;;;4961818;28;20124;-58
2021/09/11 04:18:06;;;;;;;37.00;22.77;;;17.00;99.90;;;;;;5011195;28;20038;-59
2021/09/11 04:20:32;;;;;;;34.78;22.48;;;17.00;99.90;;;;;;5012122;28;20046;-58
2021/09/11 04:22:58;;;;;;;39.63;22.85;;;16.90;99.90;;;;;;5024401;28;20520;-58
2021/09/11 04:25:23;;;;;;;43.05;23.17;;;16.80;99.90;;;;;;5006269;28;20049;-57
2021/09/11 04:27:49;;;;;;;36.25;21.90;;;16.90;99.90;;;;;;4998903;28;20069;-55
2021/09/11 04:30:16;;;;;;;39.22;22.95;;;16.80;99.90;;;;;;4994528;28;20045;-58
2021/09/11 04:32:41;;;;;;;39.90;21.83;;;16.80;99.90;;;;;;5005348;28;20038;-58
2021/09/11 04:35:07;;;;;;;44.65;23.85;;;16.80;99.90;;;;;;4978220;28;20516;-52
2021/09/11 04:37:33;;;;;;;40.53;21.75;;;16.70;99.90;;;;;;5011375;28;20469;-54
2021/09/11 04:39:59;;;;;;;37.38;21.15;;;16.70;99.90;;;;;;4990489;28;20045;-53
2021/09/11 04:42:25;;;;;;;38.50;21.83;;;16.70;99.90;;;;;;4973265;28;20540;-53
2021/09/11 04:44:50;;;;;;;36.63;20.95;;;16.70;99.90;;;;;;4988454;28;20050;-53
2021/09/11 04:47:16;;;;;;;36.45;21.75;;;16.70;99.90;;;;;;4974807;28;20037;-56
2021/09/11 04:49:42;;;;;;;35.90;20.67;;;16.60;99.90;;;;;;5004980;28;20401;-54
2021/09/11 04:52:08;;;;;;;38.30;21.92;;;16.60;99.90;;;;;;4967759;28;20061;-56
2021/09/11 04:54:34;;;;;;;38.10;21.52;;;16.50;99.90;;;;;;4963962;28;20042;-55
2021/09/11 04:56:59;;;;;;;34.88;21.98;;;16.50;99.90;;;;;;4977655;28;20050;-53
2021/09/11 04:59:27;;;;;;;35.10;20.48;;;16.50;99.90;;;;;;4999252;28;20056;-57
2021/09/11 05:01:53;;;;;;;34.53;21.42;;;16.50;99.90;;;;;;5014346;28;20420;-56
2021/09/11 05:04:19;;;;;;;36.20;21.67;;;16.50;99.90;;;;;;5020660;28;20042;-56
2021/09/11 05:06:44;;;;;;;35.13;20.98;;;16.40;99.90;;;;;;5003612;28;20037;-54
2021/09/11 05:09:11;;;;;;;37.20;21.35;;;16.40;99.90;;;;;;5021786;28;20049;-56
2021/09/11 05:11:36;;;;;;;38.10;21.45;;;16.40;99.90;;;;;;4992161;28;20081;-55
2021/09/11 05:14:02;;;;;;;36.17;21.23;;;16.40;99.90;;;;;;5008691;28;20081;-56
2021/09/11 05:16:29;;;;;;;37.75;21.77;;;16.30;99.90;;;;;;4992613;28;20046;-57
2021/09/11 05:18:54;;;;;;;36.25;21.20;;;16.30;99.90;;;;;;5008074;28;20045;-57
2021/09/11 05:21:20;;;;;;;35.78;21.10;;;16.30;99.90;;;;;;5010288;28;20053;-56
2021/09/11 05:23:45;;;;;;;38.13;21.63;;;16.30;99.90;;;;;;4983041;28;20038;-52
2021/09/11 05:26:11;;;;;;;40.38;21.67;;;16.30;99.90;;;;;;5022418;28;20038;-52
2021/09/11 05:28:36;;;;;;;38.55;22.05;;;16.20;99.90;;;;;;4985170;28;20041;-54
2021/09/11 05:31:02;;;;;;;35.70;21.80;;;16.20;99.90;;;;;;5011521;28;20038;-52
2021/09/11 05:33:28;;;;;;;36.95;22.48;;;16.20;99.90;;;;;;4974457;28;20068;-55
2021/09/11 05:35:54;;;;;;;35.47;21.13;;;16.30;99.90;;;;;;5011541;28;20498;-55
2021/09/11 05:38:20;;;;;;;38.08;22.35;;;16.20;99.90;;;;;;4972574;28;20042;-55
2021/09/11 05:40:46;;;;;;;40.55;22.23;;;16.30;99.90;;;;;;5010754;28;20080;-55
2021/09/11 05:43:11;;;;;;;39.80;22.23;;;16.30;99.90;;;;;;5013347;28;20045;-54
2021/09/11 05:45:37;;;;;;;39.92;22.95;;;16.30;99.90;;;;;;5013092;28;20072;-55
2021/09/11 05:48:03;;;;;;;38.17;21.73;;;16.30;99.90;;;;;;5000654;28;20045;-54
2021/09/11 05:50:31;;;;;;;36.05;21.65;;;16.30;99.90;;;;;;4988367;28;20049;-54
2021/09/11 05:52:57;;;;;;;41.55;23.38;;;16.30;99.90;;;;;;4983137;28;20053;-55
2021/09/11 05:55:22;;;;;;;40.85;22.35;;;16.30;99.90;;;;;;4994354;28;20050;-57
2021/09/11 05:57:48;;;;;;;40.10;23.33;;;16.30;99.90;;;;;;5012781;28;20038;-56
2021/09/11 06:00:14;;;;;;;43.45;22.73;;;16.30;99.90;;;;;;5000251;28;20100;-57
2021/09/11 06:02:40;;;;;;;42.03;22.70;;;16.30;99.90;;;;;;5010391;28;20088;-54
2021/09/11 06:05:06;;;;;;;42.35;23.67;;;16.40;99.90;;;;;;4982660;28;20165;-56
2021/09/11 06:07:32;;;;;;;40.03;22.52;;;16.40;99.90;;;;;;5005507;28;20091;-55
2021/09/11 06:09:59;;;;;;;41.80;23.73;;;16.50;99.90;;;;;;4982190;28;20129;-56
2021/09/11 06:12:25;;;;;;;38.25;23.30;;;16.50;99.90;;;;;;5011938;28;20041;-59
2021/09/11 06:14:51;;;;;;;42.85;23.80;;;16.50;99.90;;;;;;4997613;28;20038;-59
2021/09/11 06:17:17;;;;;;;42.22;24.48;;;16.50;99.90;;;;;;4980095;28;20034;-59
2021/09/11 06:19:43;;;;;;;41.60;23.25;;;16.60;99.90;;;;;;5007627;28;20033;-58
2021/09/11 06:22:11;;;;;;;40.28;23.15;;;16.60;99.90;;;;;;4984255;28;20242;-59
2021/09/11 06:24:39;;;;;;;41.08;22.60;;;16.60;99.90;;;;;;4995552;28;20418;-58
2021/09/11 06:27:08;;;;;;;39.95;24.73;;;16.60;99.90;;;;;;4982749;28;20057;-59
2021/09/11 06:29:34;;;;;;;41.30;24.38;;;16.60;99.90;;;;;;5006467;28;20038;-59
2021/09/11 06:32:00;;;;;;;45.60;25.48;;;16.60;99.90;;;;;;4990019;28;20045;-59
2021/09/11 06:34:26;;;;;;;42.67;25.02;;;16.70;99.90;;;;;;5010733;28;20042;-58
2021/09/11 06:36:52;;;;;;;39.30;24.35;;;16.70;99.90;;;;;;4961935;28;20044;-58
2021/09/11 06:39:18;;;;;;;41.78;24.50;;;16.60;99.90;;;;;;4999476;28;20706;-59
2021/09/11 06:41:44;;;;;;;42.75;25.20;;;16.70;99.90;;;;;;5020498;28;20034;-59
2021/09/11 06:44:10;;;;;;;40.38;25.30;;;16.70;99.90;;;;;;5009483;28;20034;-59
2021/09/11 06:46:36;;;;;;;41.67;25.15;;;16.70;99.90;;;;;;4965338;28;20487;-59
2021/09/11 06:49:02;;;;;;;42.22;23.05;;;16.70;99.90;;;;;;5007586;28;20033;-59
2021/09/11 06:51:32;;;;;;;42.65;24.38;;;16.70;99.90;;;;;;5008646;28;20129;-59
2021/09/11 06:53:57;;;;;;;42.58;23.90;;;16.70;99.90;;;;;;4981592;28;20061;-53
2021/09/11 06:56:23;;;;;;;45.97;24.88;;;16.80;99.90;;;;;;4975872;28;20045;-53
2021/09/11 06:58:49;;;;;;;40.67;25.20;;;16.80;99.90;;;;;;5012979;28;20563;-54
2021/09/11 07:01:14;;;;;;;42.65;24.77;;;16.90;99.90;;;;;;5012250;28;20137;-55
2021/09/11 07:03:40;;;;;;;42.70;25.30;;;16.90;99.90;;;;;;5018303;28;20081;-57
2021/09/11 07:06:06;;;;;;;41.45;24.85;;;17.00;99.90;;;;;;5020585;28;20117;-57
2021/09/11 07:08:32;;;;;;;39.83;24.58;;;17.10;99.90;;;;;;5002879;28;20472;-57
2021/09/11 07:11:01;;;;;;;42.35;23.85;;;17.10;99.90;;;;;;4981513;28;20093;-57
2021/09/11 07:13:27;;;;;;;45.25;25.70;;;17.10;99.90;;;;;;4970843;28;20057;-57
2021/09/11 07:15:53;;;;;;;40.60;25.52;;;17.10;99.90;;;;;;4996286;28;20122;-57
2021/09/11 07:18:19;;;;;;;45.75;27.33;;;17.10;99.90;;;;;;4977381;28;20118;-56
2021/09/11 07:20:45;;;;;;;43.80;27.10;;;17.10;99.90;;;;;;5003080;28;20527;-56
2021/09/11 07:23:10;;;;;;;44.90;27.52;;;17.10;99.90;;;;;;5010854;28;20046;-56
2021/09/11 07:25:36;;;;;;;44.28;26.10;;;17.10;99.90;;;;;;5013234;28;20081;-57
2021/09/11 07:28:01;;;;;;;45.35;25.58;;;17.10;99.90;;;;;;5011781;28;20093;-57
2021/09/11 07:30:27;;;;;;;47.30;26.85;;;17.10;99.90;;;;;;5009175;28;20029;-58
2021/09/11 07:32:53;;;;;;;46.00;29.27;;;17.10;99.90;;;;;;5007007;28;20060;-56
2021/09/11 07:35:19;;;;;;;44.55;27.40;;;17.00;99.90;;;;;;5007038;28;20049;-55
2021/09/11 07:37:45;;;;;;;46.95;27.90;;;17.10;99.90;;;;;;4970801;28;20049;-55
2021/09/11 07:40:12;;;;;;;46.55;27.05;;;17.10;99.90;;;;;;4993640;28;20112;-56
2021/09/11 07:42:38;;;;;;;47.40;28.40;;;17.10;99.90;;;;;;5006471;28;20081;-57
2021/09/11 07:45:06;;;;;;;51.05;28.55;;;17.10;99.90;;;;;;4977147;28;20094;-58
2021/09/11 07:47:31;;;;;;;50.42;28.95;;;17.00;99.90;;;;;;4989820;28;20117;-57
2021/09/11 07:49:57;;;;;;;50.00;30.35;;;17.00;99.90;;;;;;5007184;28;20076;-57
2021/09/11 07:52:26;;;;;;;55.88;30.35;;;17.10;99.90;;;;;;4974614;28;20098;-57
2021/09/11 07:54:51;;;;;;;51.35;30.30;;;17.10;99.90;;;;;;4975315;28;20034;-56
2021/09/11 07:57:17;;;;;;;52.50;30.45;;;17.10;99.90;;;;;;5012327;28;20041;-56
2021/09/11 07:59:42;;;;;;;55.35;31.33;;;17.10;99.90;;;;;;5011644;28;20048;-59
2021/09/11 08:02:08;;;;;;;59.10;31.75;;;17.10;99.90;;;;;;5006062;28;20580;-59
2021/09/11 08:04:33;;;;;;;53.72;30.38;;;17.10;99.90;;;;;;5011546;28;20410;-59
2021/09/11 08:06:59;;;;;;;50.20;30.38;;;17.10;99.90;;;;;;5002651;28;20042;-59
2021/09/11 08:09:24;;;;;;;55.40;31.30;;;17.20;99.90;;;;;;5012563;28;20029;-58
2021/09/11 08:11:50;;;;;;;50.63;30.17;;;17.20;99.90;;;;;;5022180;28;20042;-59
2021/09/11 08:14:16;;;;;;;49.45;30.42;;;17.20;99.90;;;;;;4977482;28;20088;-59
2021/09/11 08:16:42;;;;;;;48.58;30.17;;;17.30;99.90;;;;;;4986668;28;20575;-59
2021/09/11 08:19:07;;;;;;;48.83;28.98;;;17.30;99.90;;;;;;5000229;28;20049;-59
2021/09/11 08:21:33;;;;;;;53.70;30.80;;;17.30;99.90;;;;;;5006679;28;20042;-58
2021/09/11 08:23:59;;;;;;;48.25;30.17;;;17.30;99.90;;;;;;5007211;28;20445;-59
2021/09/11 08:26:25;;;;;;;46.33;29.92;;;17.30;99.90;;;;;;4994205;28;20073;-59
2021/09/11 08:28:51;;;;;;;46.33;30.33;;;17.30;99.90;;;;;;5002204;28;20046;-59
2021/09/11 08:31:18;;;;;;;51.25;31.30;;;17.30;99.90;;;;;;4987919;28;20073;-59
2021/09/11 08:33:43;;;;;;;46.13;29.67;;;17.40;99.90;;;;;;4976038;28;20045;-59
2021/09/11 08:36:10;;;;;;;49.25;30.67;;;17.40;99.90;;;;;;5008092;28;20471;-58
2021/09/11 08:38:35;;;;;;;49.08;29.60;;;17.40;99.90;;;;;;4993639;28;20030;-58
2021/09/11 08:41:06;;;;;;;46.20;30.27;;;17.40;99.90;;;;;;5006600;28;20049;-58
2021/09/11 08:43:33;;;;;;;45.58;29.30;;;17.40;99.90;;;;;;4976610;28;20084;-54
2021/09/11 08:45:59;;;;;;;53.88;32.58;;;17.50;99.90;;;;;;5001885;28;20046;-54
2021/09/11 08:48:25;;;;;;;53.05;30.70;;;17.50;99.90;;;;;;5004673;28;20121;-52
2021/09/11 08:50:52;;;;;;;50.83;30.67;;;17.50;99.90;;;;;;5003048;28;20042;-54
2021/09/11 08:53:18;;;;;;;44.25;30.20;;;17.50;99.90;;;;;;4992030;28;20042;-57
2021/09/11 08:55:45;;;;;;;49.00;30.35;;;17.50;99.90;;;;;;4993119;28;20448;-53
2021/09/11 08:58:11;;;;;;;47.30;29.40;;;17.60;99.90;;;;;;5011585;28;20034;-54
2021/09/11 09:00:50;;;;;;;49.25;30.02;;;17.60;99.90;;;;;;5009312;28;20033;-54
2021/09/11 09:03:34;;;;;;;47.28;31.05;;;17.60;99.90;;;;;;4963558;28;20038;-59
2021/09/11 09:06:25;;;;;;;44.83;30.17;;;17.60;99.90;;;;;;4963256;28;20041;-58
2021/09/11 09:09:04;;;;;;;47.08;29.02;;;17.70;99.90;;;;;;4980212;28;20043;-58
2021/09/11 09:11:32;;;;;;;54.60;31.55;;;17.60;99.90;;;;;;4992588;28;20073;-57
2021/09/11 09:14:04;;;;;;;43.42;28.13;;;17.60;99.90;;;;;;5005391;28;20064;-59
2021/09/11 09:16:36;;;;;;;46.55;29.63;;;17.70;99.90;;;;;;4989216;28;20080;-59
2021/09/11 09:19:11;;;;;;;47.47;29.55;;;17.70;99.90;;;;;;5004107;28;20046;-57
2021/09/11 09:21:38;;;;;;;46.10;29.52;;;17.70;99.90;;;;;;4974918;28;20102;-57
2021/09/11 09:24:06;;;;;;;47.47;28.80;;;17.80;99.90;;;;;;4987213;28;20037;-57
2021/09/11 09:26:48;;;;;;;43.72;29.58;;;17.80;99.90;;;;;;5025163;28;20134;-57
2021/09/11 09:29:16;;;;;;;47.58;30.60;;;17.80;99.90;;;;;;5011366;28;20061;-57
2021/09/11 09:31:43;;;;;;;43.42;29.33;;;17.80;99.90;;;;;;4985666;28;20091;-58
2021/09/11 09:34:36;;;;;;;46.40;30.30;;;17.90;99.90;;;;;;4993106;28;20049;-57
2021/09/11 09:37:03;;;;;;;44.45;30.20;;;17.90;99.90;;;;;;4992179;28;20049;-57
2021/09/11 09:39:30;;;;;;;44.47;30.10;;;17.90;99.90;;;;;;4992327;28;20077;-60
2021/09/11 09:42:03;;;;;;;48.17;30.23;;;17.90;99.90;;;;;;5011559;28;20041;-54
2021/09/11 09:44:39;;;;;;;47.78;30.48;;;18.00;99.90;;;;;;5009891;28;20042;-53
2021/09/11 09:47:04;;;;;;;51.38;31.55;;;18.10;99.90;;;;;;4997332;28;20421;-54
2021/09/11 09:49:31;;;;;;;49.80;30.52;;;18.10;99.90;;;;;;4993804;28;20613;-51
2021/09/11 09:51:58;;;;;;;47.08;30.35;;;18.10;99.90;;;;;;5006436;28;20093;-57
2021/09/11 09:54:23;;;;;;;45.55;29.90;;;18.20;99.90;;;;;;5001478;28;20064;-54
2021/09/11 09:56:49;;;;;;;45.53;28.67;;;18.20;99.90;;;;;;4991246;28;20519;-56
2021/09/11 09:59:17;;;;;;;48.35;30.23;;;18.20;99.90;;;;;;4982646;28;20092;-54
2021/09/11 10:01:43;;;;;;;43.15;29.08;;;18.30;99.90;;;;;;4999451;28;20051;-52
2021/09/11 10:04:17;;;;;;;47.08;30.13;;;18.30;99.90;;;;;;5009517;28;20046;-54
2021/09/11 10:06:59;;;;;;;47.10;27.70;;;18.40;99.90;;;;;;4988138;28;20072;-55
2021/09/11 10:09:27;;;;;;;43.50;28.80;;;18.40;99.90;;;;;;4970670;28;20049;-54
2021/09/11 10:11:54;;;;;;;46.60;28.02;;;18.40;99.90;;;;;;4959850;28;20037;-53
2021/09/11 10:14:29;;;;;;;42.78;28.38;;;18.50;99.90;;;;;;4979462;28;20109;-51
2021/09/11 10:17:05;;;;;;;43.72;28.90;;;18.60;99.90;;;;;;4982935;28;20046;-54
2021/09/11 10:19:36;;;;;;;39.88;27.30;;;18.60;99.90;;;;;;4996614;28;20096;-56
2021/09/11 10:22:06;;;;;;;36.85;26.60;;;18.60;99.90;;;;;;5001425;28;20061;-54
2021/09/11 10:24:34;;;;;;;37.60;25.83;;;18.60;99.90;;;;;;4999211;28;20091;-54
2021/09/11 10:27:09;;;;;;;43.08;26.85;;;18.60;99.90;;;;;;4991509;28;20038;-54
2021/09/11 10:29:43;;;;;;;39.38;26.20;;;18.60;99.90;;;;;;4978599;28;20034;-54
2021/09/11 10:32:11;;;;;;;44.50;26.38;;;18.60;99.90;;;;;;4995624;28;20057;-54
2021/09/11 10:34:51;;;;;;;35.65;24.23;;;18.50;99.90;;;;;;4968976;28;20038;-53
2021/09/11 10:37:31;;;;;;;38.75;26.85;;;18.50;99.90;;;;;;5001679;28;20133;-55
2021/09/11 10:40:27;;;;;;;41.13;26.67;;;18.50;99.90;;;;;;4995522;28;20046;-57
2021/09/11 10:42:58;;;;;;;35.35;24.63;;;18.60;99.90;;;;;;5002084;28;20414;-57
2021/09/11 10:45:53;;;;;;;37.15;25.17;;;18.60;99.90;;;;;;4994643;28;20042;-57
2021/09/11 10:48:44;;;;;;;40.13;24.30;;;18.60;99.90;;;;;;4986958;28;20049;-58
2021/09/11 10:51:23;;;;;;;35.63;25.13;;;18.60;99.90;;;;;;4987908;28;20065;-59
2021/09/11 10:54:04;;;;;;;40.85;23.98;;;18.60;99.90;;;;;;5010507;28;20504;-59
2021/09/11 10:56:53;;;;;;;37.00;25.98;;;18.70;99.90;;;;;;4995499;28;20141;-59
2021/09/11 10:59:22;;;;;;;31.65;22.45;;;18.70;99.90;;;;;;4975350;28;20057;-58
2021/09/11 11:02:06;;;;;;;33.70;23.70;;;18.70;99.90;;;;;;4996156;28;20045;-59
2021/09/11 11:04:37;;;;;;;33.33;23.45;;;18.80;99.90;;;;;;4969141;28;20038;-59
2021/09/11 11:07:05;;;;;;;32.70;21.83;;;18.80;99.90;;;;;;5011554;28;20413;-59
2021/09/11 11:09:44;;;;;;;35.78;22.48;;;18.80;99.90;;;;;;5013843;28;20034;-59
2021/09/11 11:12:12;;;;;;;30.00;21.42;;;18.80;99.90;;;;;;5009399;28;20046;-59
2021/09/11 11:14:45;;;;;;;33.78;23.13;;;18.80;99.90;;;;;;5003348;28;20056;-60
2021/09/11 11:17:15;;;;;;;32.65;21.70;;;18.80;99.90;;;;;;4999758;28;20057;-60
2021/09/11 11:19:51;;;;;;;35.80;22.67;;;18.80;99.90;;;;;;5003874;28;20046;-59
2021/09/11 11:22:34;;;;;;;31.15;22.40;;;18.80;99.90;;;;;;4997541;28;20034;-59
2021/09/11 11:25:01;;;;;;;32.10;22.00;;;18.80;99.90;;;;;;4959618;28;20435;-59
2021/09/11 11:27:30;;;;;;;29.02;20.92;;;18.80;99.80;;;;;;5001610;28;20027;-59
2021/09/11 11:29:58;;;;;;;33.20;22.13;;;18.80;99.90;;;;;;4998101;28;20109;-59
2021/09/11 11:32:29;;;;;;;35.05;21.92;;;18.80;99.80;;;;;;4980807;28;20049;-59
2021/09/11 11:34:59;;;;;;;31.13;20.87;;;18.90;99.90;;;;;;4994138;28;20117;-59
2021/09/11 11:37:34;;;;;;;28.27;20.77;;;19.00;99.70;;;;;;4993484;28;20620;-58
2021/09/11 11:40:10;;;;;;;31.63;21.67;;;19.00;99.70;;;;;;4995207;28;20041;-59
2021/09/11 11:42:38;;;;;;;31.52;21.23;;;19.10;99.80;;;;;;5009755;28;20076;-60
2021/09/11 11:45:06;;;;;;;30.85;21.67;;;19.20;99.70;;;;;;5009569;28;20164;-58
2021/09/11 11:47:32;;;;;;;28.38;19.67;;;19.20;99.40;;;;;;4994140;28;20160;-59
2021/09/11 11:49:58;;;;;;;31.20;21.33;;;19.30;99.30;;;;;;4992929;28;20096;-60
2021/09/11 11:52:25;;;;;;;30.42;20.38;;;19.30;99.10;;;;;;4970655;28;20034;-58
2021/09/11 11:54:51;;;;;;;30.50;21.17;;;19.40;98.90;;;;;;4996554;28;20060;-58
2021/09/11 11:57:22;;;;;;;31.23;21.20;;;19.40;98.60;;;;;;5013390;28;20057;-58
2021/09/11 12:00:08;;;;;;;31.27;22.40;;;19.40;98.70;;;;;;4998784;28;20045;-54
2021/09/11 12:02:38;;;;;;;28.50;21.83;;;19.40;99.00;;;;;;4992324;28;20042;-55
2021/09/11 12:05:16;;;;;;;28.77;22.55;;;19.40;99.10;;;;;;4997242;28;20038;-56
2021/09/11 12:07:57;;;;;;;31.38;23.30;;;19.40;99.10;;;;;;5008011;28;20026;-59
2021/09/11 12:10:26;;;;;;;31.95;22.90;;;19.30;99.10;;;;;;4995615;28;20038;-60
2021/09/11 12:12:55;;;;;;;29.85;23.48;;;19.30;99.20;;;;;;5009486;28;20486;-60
2021/09/11 12:15:23;;;;;;;33.45;25.23;;;19.30;99.50;;;;;;5009225;28;20514;-59
2021/09/11 12:17:54;;;;;;;29.17;23.58;;;19.20;99.60;;;;;;5004344;28;20053;-57
2021/09/11 12:20:22;;;;;;;32.55;23.60;;;19.20;99.90;;;;;;4967717;28;20541;-56
2021/09/11 12:23:03;;;;;;;29.98;23.02;;;19.20;99.90;;;;;;4998550;28;20111;-56
2021/09/11 12:25:48;;;;;;;29.08;22.65;;;19.30;99.90;;;;;;5007811;28;20040;-56
2021/09/11 12:28:29;;;;;;;34.75;22.42;;;19.30;99.90;;;;;;4985768;28;20037;-57
2021/09/11 12:30:54;;;;;;;30.73;22.77;;;19.30;99.90;;;;;;4990227;28;20076;-57
2021/09/11 12:33:20;;;;;;;28.50;21.27;;;19.30;99.90;;;;;;5000843;28;20077;-57